sensor_id;sensor_type;location;lat;lon;timestamp;temperature;humidity
9949;DHT22;5013;51.840;8.276;2023-04-24T00:00:14;12.10;99.90
9949;DHT22;5013;51.840;8.276;2023-04-24T00:02:41;12.10;1.00
9949;DHT22;5013;51.840;8.276;2023-04-24T00:05:10;12.10;1.00
9949;DHT22;5013;51.840;8.276;2023-04-24T00:07:35;12.10;1.00
9949;DHT22;5013;51.840;8.276;2023-04-24T00:10:01;12.10;1.00
9949;DHT22;5013;51.840;8.276;2023-04-24T00:12:27;12.10;99.90
9949;DHT22;5013;51.840;8.276;2023-04-24T00:14:52;12.10;99.90
9949;DHT22;5013;51.840;8.276;2023-04-24T00:17:18;12.10;99.90
9949;DHT22;5013;51.840;8.276;2023-04-24T00:19:48;12.10;99.90
9949;DHT22;5013;51.840;8.276;2023-04-24T00:22:16;12.10;1.00
9949;DHT22;5013;51.840;8.276;2023-04-24T00:24:42;12.00;1.00
9949;DHT22;5013;51.840;8.276;2023-04-24T00:27:08;12.00;1.00
9949;DHT22;5013;51.840;8.276;2023-04-24T00:29:34;12.00;9.90
9949;DHT22;5013;51.840;8.276;2023-04-24T00:31:59;12.00;1.00
9949;DHT22;5013;51.840;8.276;2023-04-24T00:34:25;12.00;99.90
9949;DHT22;5013;51.840;8.276;2023-04-24T00:36:51;12.00;99.90
9949;DHT22;5013;51.840;8.276;2023-04-24T00:39:19;11.90;99.90
9949;DHT22;5013;51.840;8.276;2023-04-24T00:41:45;11.90;99.90
9949;DHT22;5013;51.840;8.276;2023-04-24T00:44:11;11.90;1.00
9949;DHT22;5013;51.840;8.276;2023-04-24T00:46:37;11.80;99.90
9949;DHT22;5013;51.840;8.276;2023-04-24T00:49:04;11.90;1.00
9949;DHT22;5013;51.840;8.276;2023-04-24T00:51:30;11.80;1.00
9949;DHT22;5013;51.840;8.276;2023-04-24T00:53:56;11.70;99.90
9949;DHT22;5013;51.840;8.276;2023-04-24T00:56:21;11.70;99.90
9949;DHT22;5013;51.840;8.276;2023-04-24T00:58:49;11.70;1.00
9949;DHT22;5013;51.840;8.276;2023-04-24T01:01:15;11.70;99.90
9949;DHT22;5013;51.840;8.276;2023-04-24T01:03:41;11.70;99.90
9949;DHT22;5013;51.840;8.276;2023-04-24T01:06:07;11.80;99.90
9949;DHT22;5013;51.840;8.276;2023-04-24T01:08:34;11.80;93.10
9949;DHT22;5013;51.840;8.276;2023-04-24T01:11:03;11.70;1.00
9949;DHT22;5013;51.840;8.276;2023-04-24T01:13:29;11.80;1.00
9949;DHT22;5013;51.840;8.276;2023-04-24T01:15:56;11.70;1.00
9949;DHT22;5013;51.840;8.276;2023-04-24T01:18:21;11.60;99.90
9949;DHT22;5013;51.840;8.276;2023-04-24T01:20:48;11.50;1.00
9949;DHT22;5013;51.840;8.276;2023-04-24T01:23:16;11.50;1.00
9949;DHT22;5013;51.840;8.276;2023-04-24T01:25:42;11.40;99.90
9949;DHT22;5013;51.840;8.276;2023-04-24T01:28:08;11.30;68.40
9949;DHT22;5013;51.840;8.276;2023-04-24T01:30:34;11.20;1.00
9949;DHT22;5013;51.840;8.276;2023-04-24T01:33:00;11.10;26.50
9949;DHT22;5013;51.840;8.276;2023-04-24T01:35:26;11.20;1.00
9949;DHT22;5013;51.840;8.276;2023-04-24T01:37:52;11.10;1.00
9949;DHT22;5013;51.840;8.276;2023-04-24T01:40:18;11.10;1.00
9949;DHT22;5013;51.840;8.276;2023-04-24T01:42:43;11.10;1.00
9949;DHT22;5013;51.840;8.276;2023-04-24T01:45:11;11.10;1.00
9949;DHT22;5013;51.840;8.276;2023-04-24T01:47:39;11.10;1.00
9949;DHT22;5013;51.840;8.276;2023-04-24T01:50:06;11.10;1.00
9949;DHT22;5013;51.840;8.276;2023-04-24T01:52:32;11.00;1.00
9949;DHT22;5013;51.840;8.276;2023-04-24T01:55:02;10.90;99.90
9949;DHT22;5013;51.840;8.276;2023-04-24T01:57:30;11.00;5.00
9949;DHT22;5013;51.840;8.276;2023-04-24T01:59:56;10.90;1.00
9949;DHT22;5013;51.840;8.276;2023-04-24T02:02:22;10.90;1.00
9949;DHT22;5013;51.840;8.276;2023-04-24T02:04:58;10.80;1.00
9949;DHT22;5013;51.840;8.276;2023-04-24T02:07:24;10.80;1.00
9949;DHT22;5013;51.840;8.276;2023-04-24T02:09:49;10.80;99.90
9949;DHT22;5013;51.840;8.276;2023-04-24T02:12:15;10.80;74.30
9949;DHT22;5013;51.840;8.276;2023-04-24T02:14:42;10.80;99.90
9949;DHT22;5013;51.840;8.276;2023-04-24T02:17:08;10.70;99.90
9949;DHT22;5013;51.840;8.276;2023-04-24T02:19:34;10.70;88.60
9949;DHT22;5013;51.840;8.276;2023-04-24T02:21:59;10.70;99.90
9949;DHT22;5013;51.840;8.276;2023-04-24T02:24:25;10.60;99.90
9949;DHT22;5013;51.840;8.276;2023-04-24T02:26:51;10.60;99.90
9949;DHT22;5013;51.840;8.276;2023-04-24T02:29:16;10.50;1.00
9949;DHT22;5013;51.840;8.276;2023-04-24T02:31:42;10.40;1.00
9949;DHT22;5013;51.840;8.276;2023-04-24T02:34:08;10.40;1.00
9949;DHT22;5013;51.840;8.276;2023-04-24T02:36:34;10.30;99.90
9949;DHT22;5013;51.840;8.276;2023-04-24T02:38:59;10.30;1.00
9949;DHT22;5013;51.840;8.276;2023-04-24T02:41:26;10.30;99.90
9949;DHT22;5013;51.840;8.276;2023-04-24T02:43:56;10.40;99.90
9949;DHT22;5013;51.840;8.276;2023-04-24T02:46:22;10.50;99.90
9949;DHT22;5013;51.840;8.276;2023-04-24T02:48:47;10.50;99.90
9949;DHT22;5013;51.840;8.276;2023-04-24T02:51:13;10.50;99.90
9949;DHT22;5013;51.840;8.276;2023-04-24T02:53:38;10.50;99.90
9949;DHT22;5013;51.840;8.276;2023-04-24T02:56:04;10.70;1.00
9949;DHT22;5013;51.840;8.276;2023-04-24T02:58:30;10.70;1.00
9949;DHT22;5013;51.840;8.276;2023-04-24T03:00:55;10.80;99.90
9949;DHT22;5013;51.840;8.276;2023-04-24T03:03:21;10.80;1.00
9949;DHT22;5013;51.840;8.276;2023-04-24T03:05:47;10.90;1.00
9949;DHT22;5013;51.840;8.276;2023-04-24T03:08:13;10.90;99.90
9949;DHT22;5013;51.840;8.276;2023-04-24T03:10:39;11.00;1.00
9949;DHT22;5013;51.840;8.276;2023-04-24T03:13:05;11.00;99.90
9949;DHT22;5013;51.840;8.276;2023-04-24T03:15:31;11.00;99.90
9949;DHT22;5013;51.840;8.276;2023-04-24T03:17:56;11.00;62.60
9949;DHT22;5013;51.840;8.276;2023-04-24T03:20:22;11.00;1.00
9949;DHT22;5013;51.840;8.276;2023-04-24T03:22:48;11.00;1.00
9949;DHT22;5013;51.840;8.276;2023-04-24T03:25:13;11.10;1.00
9949;DHT22;5013;51.840;8.276;2023-04-24T03:27:39;11.00;1.00
9949;DHT22;5013;51.840;8.276;2023-04-24T03:30:06;11.00;99.90
9949;DHT22;5013;51.840;8.276;2023-04-24T03:32:33;11.10;99.90
9949;DHT22;5013;51.840;8.276;2023-04-24T03:34:59;11.10;99.90
9949;DHT22;5013;51.840;8.276;2023-04-24T03:37:24;11.00;1.00
9949;DHT22;5013;51.840;8.276;2023-04-24T03:39:51;11.00;92.40
9949;DHT22;5013;51.840;8.276;2023-04-24T03:42:17;11.00;1.00
9949;DHT22;5013;51.840;8.276;2023-04-24T03:44:42;10.90;99.90
9949;DHT22;5013;51.840;8.276;2023-04-24T03:47:08;10.90;27.00
9949;DHT22;5013;51.840;8.276;2023-04-24T03:49:34;10.90;97.60
9949;DHT22;5013;51.840;8.276;2023-04-24T03:51:59;10.90;92.40
9949;DHT22;5013;51.840;8.276;2023-04-24T03:54:25;10.80;23.90
9949;DHT22;5013;51.840;8.276;2023-04-24T03:56:51;10.90;99.90
9949;DHT22;5013;51.840;8.276;2023-04-24T03:59:16;10.80;99.90
9949;DHT22;5013;51.840;8.276;2023-04-24T04:01:42;10.90;99.90
9949;DHT22;5013;51.840;8.276;2023-04-24T04:04:07;10.90;99.90
9949;DHT22;5013;51.840;8.276;2023-04-24T04:06:33;10.90;99.90
9949;DHT22;5013;51.840;8.276;2023-04-24T04:08:59;10.90;99.90
9949;DHT22;5013;51.840;8.276;2023-04-24T04:11:25;10.90;1.00
9949;DHT22;5013;51.840;8.276;2023-04-24T04:13:51;10.90;1.00
9949;DHT22;5013;51.840;8.276;2023-04-24T04:16:16;11.00;1.00
9949;DHT22;5013;51.840;8.276;2023-04-24T04:18:43;11.00;1.00
9949;DHT22;5013;51.840;8.276;2023-04-24T04:21:09;11.00;99.90
9949;DHT22;5013;51.840;8.276;2023-04-24T04:23:34;11.00;2.40
9949;DHT22;5013;51.840;8.276;2023-04-24T04:26:00;10.90;1.00
9949;DHT22;5013;51.840;8.276;2023-04-24T04:28:26;10.90;1.00
9949;DHT22;5013;51.840;8.276;2023-04-24T04:30:52;10.90;99.90
9949;DHT22;5013;51.840;8.276;2023-04-24T04:33:21;10.80;99.90
9949;DHT22;5013;51.840;8.276;2023-04-24T04:35:47;10.70;99.90
9949;DHT22;5013;51.840;8.276;2023-04-24T04:38:14;10.70;99.90
9949;DHT22;5013;51.840;8.276;2023-04-24T04:40:40;10.70;99.90
9949;DHT22;5013;51.840;8.276;2023-04-24T04:43:06;10.50;99.90
9949;DHT22;5013;51.840;8.276;2023-04-24T04:45:32;10.50;99.90
9949;DHT22;5013;51.840;8.276;2023-04-24T04:47:58;10.50;99.90
9949;DHT22;5013;51.840;8.276;2023-04-24T04:50:26;10.50;99.90
9949;DHT22;5013;51.840;8.276;2023-04-24T04:52:52;10.50;99.90
9949;DHT22;5013;51.840;8.276;2023-04-24T04:55:17;10.60;99.90
9949;DHT22;5013;51.840;8.276;2023-04-24T04:57:45;10.60;99.90
9949;DHT22;5013;51.840;8.276;2023-04-24T05:00:11;10.60;99.90
9949;DHT22;5013;51.840;8.276;2023-04-24T05:02:37;10.50;99.90
9949;DHT22;5013;51.840;8.276;2023-04-24T05:05:03;10.50;1.00
9949;DHT22;5013;51.840;8.276;2023-04-24T05:07:29;10.50;99.90
9949;DHT22;5013;51.840;8.276;2023-04-24T05:09:54;10.50;99.90
9949;DHT22;5013;51.840;8.276;2023-04-24T05:12:20;10.50;99.90
9949;DHT22;5013;51.840;8.276;2023-04-24T05:14:47;10.50;99.90
9949;DHT22;5013;51.840;8.276;2023-04-24T05:17:12;10.60;99.90
9949;DHT22;5013;51.840;8.276;2023-04-24T05:19:38;10.60;99.90
9949;DHT22;5013;51.840;8.276;2023-04-24T05:22:04;10.60;99.90
9949;DHT22;5013;51.840;8.276;2023-04-24T05:24:32;10.60;1.00
9949;DHT22;5013;51.840;8.276;2023-04-24T05:26:58;10.60;99.90
9949;DHT22;5013;51.840;8.276;2023-04-24T05:29:24;10.60;99.90
9949;DHT22;5013;51.840;8.276;2023-04-24T05:31:50;10.60;99.90
9949;DHT22;5013;51.840;8.276;2023-04-24T05:34:16;10.70;99.90
9949;DHT22;5013;51.840;8.276;2023-04-24T05:36:42;10.70;99.90
9949;DHT22;5013;51.840;8.276;2023-04-24T05:39:08;10.80;99.90
9949;DHT22;5013;51.840;8.276;2023-04-24T05:41:34;10.80;99.90
9949;DHT22;5013;51.840;8.276;2023-04-24T05:43:59;10.80;99.90
9949;DHT22;5013;51.840;8.276;2023-04-24T05:46:25;10.90;99.90
9949;DHT22;5013;51.840;8.276;2023-04-24T05:48:50;11.00;99.90
9949;DHT22;5013;51.840;8.276;2023-04-24T05:51:16;11.00;1.20
9949;DHT22;5013;51.840;8.276;2023-04-24T05:53:41;11.00;1.00
9949;DHT22;5013;51.840;8.276;2023-04-24T05:56:07;11.00;11.40
9949;DHT22;5013;51.840;8.276;2023-04-24T05:58:33;11.00;37.20
9949;DHT22;5013;51.840;8.276;2023-04-24T06:00:58;10.90;1.00
9949;DHT22;5013;51.840;8.276;2023-04-24T06:03:26;10.90;99.90
9949;DHT22;5013;51.840;8.276;2023-04-24T06:05:52;10.90;1.00
9949;DHT22;5013;51.840;8.276;2023-04-24T06:08:18;10.90;1.00
9949;DHT22;5013;51.840;8.276;2023-04-24T06:10:44;10.90;1.00
9949;DHT22;5013;51.840;8.276;2023-04-24T06:13:10;11.00;1.00
9949;DHT22;5013;51.840;8.276;2023-04-24T06:15:36;11.00;1.00
9949;DHT22;5013;51.840;8.276;2023-04-24T06:18:02;11.00;1.00
9949;DHT22;5013;51.840;8.276;2023-04-24T06:20:28;11.00;1.00
9949;DHT22;5013;51.840;8.276;2023-04-24T06:22:53;11.10;1.00
9949;DHT22;5013;51.840;8.276;2023-04-24T06:25:19;11.10;1.00
9949;DHT22;5013;51.840;8.276;2023-04-24T06:27:45;11.10;1.00
9949;DHT22;5013;51.840;8.276;2023-04-24T06:30:11;10.90;1.00
9949;DHT22;5013;51.840;8.276;2023-04-24T06:32:37;11.00;17.00
9949;DHT22;5013;51.840;8.276;2023-04-24T06:35:03;11.00;1.00
9949;DHT22;5013;51.840;8.276;2023-04-24T06:37:29;11.00;1.00
9949;DHT22;5013;51.840;8.276;2023-04-24T06:39:55;11.10;1.00
9949;DHT22;5013;51.840;8.276;2023-04-24T06:42:20;11.10;1.00
9949;DHT22;5013;51.840;8.276;2023-04-24T06:44:47;11.10;99.90
9949;DHT22;5013;51.840;8.276;2023-04-24T06:47:13;11.10;99.90
9949;DHT22;5013;51.840;8.276;2023-04-24T06:49:39;11.10;99.90
9949;DHT22;5013;51.840;8.276;2023-04-24T06:52:05;11.10;99.90
9949;DHT22;5013;51.840;8.276;2023-04-24T06:54:31;11.20;99.90
9949;DHT22;5013;51.840;8.276;2023-04-24T06:56:58;11.20;99.90
9949;DHT22;5013;51.840;8.276;2023-04-24T06:59:24;11.20;99.90
9949;DHT22;5013;51.840;8.276;2023-04-24T07:01:50;11.20;99.90
9949;DHT22;5013;51.840;8.276;2023-04-24T07:04:19;11.20;99.90
9949;DHT22;5013;51.840;8.276;2023-04-24T07:06:48;11.10;1.00
9949;DHT22;5013;51.840;8.276;2023-04-24T07:09:16;11.00;1.00
9949;DHT22;5013;51.840;8.276;2023-04-24T07:11:44;11.10;1.00
9949;DHT22;5013;51.840;8.276;2023-04-24T07:14:10;11.00;1.00
9949;DHT22;5013;51.840;8.276;2023-04-24T07:16:35;11.10;1.00
9949;DHT22;5013;51.840;8.276;2023-04-24T07:19:01;11.20;1.00
9949;DHT22;5013;51.840;8.276;2023-04-24T07:21:26;11.20;1.00
9949;DHT22;5013;51.840;8.276;2023-04-24T07:23:53;11.20;1.00
9949;DHT22;5013;51.840;8.276;2023-04-24T07:26:20;11.10;1.00
9949;DHT22;5013;51.840;8.276;2023-04-24T07:28:46;11.40;1.00
9949;DHT22;5013;51.840;8.276;2023-04-24T07:31:12;11.50;1.00
9949;DHT22;5013;51.840;8.276;2023-04-24T07:33:37;11.60;1.00
9949;DHT22;5013;51.840;8.276;2023-04-24T07:36:03;11.60;1.00
9949;DHT22;5013;51.840;8.276;2023-04-24T07:38:30;11.80;1.00
9949;DHT22;5013;51.840;8.276;2023-04-24T07:40:56;12.20;99.90
9949;DHT22;5013;51.840;8.276;2023-04-24T07:43:21;12.50;42.00
9949;DHT22;5013;51.840;8.276;2023-04-24T07:45:49;12.50;99.90
9949;DHT22;5013;51.840;8.276;2023-04-24T07:48:15;12.50;1.00
9949;DHT22;5013;51.840;8.276;2023-04-24T07:50:42;12.30;99.90
9949;DHT22;5013;51.840;8.276;2023-04-24T07:53:07;12.20;34.70
9949;DHT22;5013;51.840;8.276;2023-04-24T07:55:33;12.00;99.90
9949;DHT22;5013;51.840;8.276;2023-04-24T07:57:59;11.70;99.90
9949;DHT22;5013;51.840;8.276;2023-04-24T08:00:24;11.50;1.00
9949;DHT22;5013;51.840;8.276;2023-04-24T08:02:50;11.30;1.00
9949;DHT22;5013;51.840;8.276;2023-04-24T08:05:16;11.20;1.00
9949;DHT22;5013;51.840;8.276;2023-04-24T08:07:41;11.30;31.10
9949;DHT22;5013;51.840;8.276;2023-04-24T08:10:11;11.50;1.00
9949;DHT22;5013;51.840;8.276;2023-04-24T08:12:37;11.70;1.00
9949;DHT22;5013;51.840;8.276;2023-04-24T08:15:04;11.80;1.00
9949;DHT22;5013;51.840;8.276;2023-04-24T08:17:30;11.70;99.90
9949;DHT22;5013;51.840;8.276;2023-04-24T08:19:56;11.80;99.90
9949;DHT22;5013;51.840;8.276;2023-04-24T08:22:27;11.80;99.90
9949;DHT22;5013;51.840;8.276;2023-04-24T08:24:53;11.70;99.90
9949;DHT22;5013;51.840;8.276;2023-04-24T08:27:18;11.80;99.90
9949;DHT22;5013;51.840;8.276;2023-04-24T08:29:44;11.70;99.90
9949;DHT22;5013;51.840;8.276;2023-04-24T08:32:10;11.80;1.00
9949;DHT22;5013;51.840;8.276;2023-04-24T08:34:35;11.60;1.00
9949;DHT22;5013;51.840;8.276;2023-04-24T08:37:01;11.60;1.00
9949;DHT22;5013;51.840;8.276;2023-04-24T08:39:27;11.80;1.00
9949;DHT22;5013;51.840;8.276;2023-04-24T08:41:53;11.90;1.00
9949;DHT22;5013;51.840;8.276;2023-04-24T08:44:19;12.00;1.00
9949;DHT22;5013;51.840;8.276;2023-04-24T08:46:45;11.80;99.90
9949;DHT22;5013;51.840;8.276;2023-04-24T08:49:13;11.60;99.90
9949;DHT22;5013;51.840;8.276;2023-04-24T08:51:39;11.80;99.90
9949;DHT22;5013;51.840;8.276;2023-04-24T08:54:05;11.80;99.90
9949;DHT22;5013;51.840;8.276;2023-04-24T08:56:34;11.80;99.90
9949;DHT22;5013;51.840;8.276;2023-04-24T08:59:00;11.80;99.90
9949;DHT22;5013;51.840;8.276;2023-04-24T09:01:26;11.70;1.00
9949;DHT22;5013;51.840;8.276;2023-04-24T09:03:54;11.40;99.90
9949;DHT22;5013;51.840;8.276;2023-04-24T09:06:21;11.50;1.00
9949;DHT22;5013;51.840;8.276;2023-04-24T09:08:50;11.60;99.90
9949;DHT22;5013;51.840;8.276;2023-04-24T09:11:17;11.90;99.90
9949;DHT22;5013;51.840;8.276;2023-04-24T09:13:43;12.10;99.90
9949;DHT22;5013;51.840;8.276;2023-04-24T09:16:09;12.20;13.30
9949;DHT22;5013;51.840;8.276;2023-04-24T09:18:34;12.30;99.90
9949;DHT22;5013;51.840;8.276;2023-04-24T09:21:07;12.40;1.00
9949;DHT22;5013;51.840;8.276;2023-04-24T09:23:33;12.40;46.40
9949;DHT22;5013;51.840;8.276;2023-04-24T09:26:00;12.30;30.00
9949;DHT22;5013;51.840;8.276;2023-04-24T09:28:39;12.30;40.20
9949;DHT22;5013;51.840;8.276;2023-04-24T09:31:11;12.10;99.90
9949;DHT22;5013;51.840;8.276;2023-04-24T09:33:37;11.70;99.90
9949;DHT22;5013;51.840;8.276;2023-04-24T09:36:02;11.60;99.90
9949;DHT22;5013;51.840;8.276;2023-04-24T09:38:35;11.30;4.60
9949;DHT22;5013;51.840;8.276;2023-04-24T09:41:04;11.30;99.90
9949;DHT22;5013;51.840;8.276;2023-04-24T09:43:30;11.30;99.90
9949;DHT22;5013;51.840;8.276;2023-04-24T09:45:57;11.20;99.90
9949;DHT22;5013;51.840;8.276;2023-04-24T09:48:31;11.10;56.60
9949;DHT22;5013;51.840;8.276;2023-04-24T09:50:57;11.10;99.90
9949;DHT22;5013;51.840;8.276;2023-04-24T09:53:25;11.20;1.00
9949;DHT22;5013;51.840;8.276;2023-04-24T09:55:52;11.20;99.90
9949;DHT22;5013;51.840;8.276;2023-04-24T09:58:24;11.10;1.00
9949;DHT22;5013;51.840;8.276;2023-04-24T10:00:53;11.30;1.00
9949;DHT22;5013;51.840;8.276;2023-04-24T10:03:19;11.20;1.00
9949;DHT22;5013;51.840;8.276;2023-04-24T10:05:46;11.10;88.10
9949;DHT22;5013;51.840;8.276;2023-04-24T10:08:13;11.20;1.00
9949;DHT22;5013;51.840;8.276;2023-04-24T10:10:41;11.60;1.00
9949;DHT22;5013;51.840;8.276;2023-04-24T10:13:08;11.90;1.00
9949;DHT22;5013;51.840;8.276;2023-04-24T10:15:35;11.70;1.00
9949;DHT22;5013;51.840;8.276;2023-04-24T10:18:02;11.60;99.90
9949;DHT22;5013;51.840;8.276;2023-04-24T10:20:29;11.40;1.00
9949;DHT22;5013;51.840;8.276;2023-04-24T10:22:57;11.30;1.00
9949;DHT22;5013;51.840;8.276;2023-04-24T10:25:25;11.10;99.90
9949;DHT22;5013;51.840;8.276;2023-04-24T10:27:52;11.00;1.00
9949;DHT22;5013;51.840;8.276;2023-04-24T10:30:19;11.00;1.00
9949;DHT22;5013;51.840;8.276;2023-04-24T10:32:45;11.00;99.90
9949;DHT22;5013;51.840;8.276;2023-04-24T10:35:15;10.80;1.00
9949;DHT22;5013;51.840;8.276;2023-04-24T10:37:46;10.80;1.00
9949;DHT22;5013;51.840;8.276;2023-04-24T10:40:18;10.90;8.00
9949;DHT22;5013;51.840;8.276;2023-04-24T10:42:47;10.80;99.90
9949;DHT22;5013;51.840;8.276;2023-04-24T10:45:16;11.00;99.90
9949;DHT22;5013;51.840;8.276;2023-04-24T10:51:14;11.10;1.00
9949;DHT22;5013;51.840;8.276;2023-04-24T10:53:20;11.00;1.00
9949;DHT22;5013;51.840;8.276;2023-04-24T10:56:07;10.80;73.40
9949;DHT22;5013;51.840;8.276;2023-04-24T10:58:45;10.70;68.20
9949;DHT22;5013;51.840;8.276;2023-04-24T11:01:33;10.60;1.00
9949;DHT22;5013;51.840;8.276;2023-04-24T11:04:03;10.70;1.00
9949;DHT22;5013;51.840;8.276;2023-04-24T11:06:33;10.70;1.00
9949;DHT22;5013;51.840;8.276;2023-04-24T11:09:11;10.70;1.00
9949;DHT22;5013;51.840;8.276;2023-04-24T11:11:45;10.70;1.00
9949;DHT22;5013;51.840;8.276;2023-04-24T11:14:14;10.40;1.00
9949;DHT22;5013;51.840;8.276;2023-04-24T11:16:45;10.40;99.90
9949;DHT22;5013;51.840;8.276;2023-04-24T11:21:49;10.50;1.00
9949;DHT22;5013;51.840;8.276;2023-04-24T11:24:29;10.40;1.00
9949;DHT22;5013;51.840;8.276;2023-04-24T11:26:58;10.50;1.00
9949;DHT22;5013;51.840;8.276;2023-04-24T11:34:51;10.10;99.90
9949;DHT22;5013;51.840;8.276;2023-04-24T11:37:17;10.00;99.70
9949;DHT22;5013;51.840;8.276;2023-04-24T11:39:43;9.90;99.90
9949;DHT22;5013;51.840;8.276;2023-04-24T11:42:09;9.80;99.90
9949;DHT22;5013;51.840;8.276;2023-04-24T11:44:35;9.70;99.90
9949;DHT22;5013;51.840;8.276;2023-04-24T11:47:05;9.60;1.00
9949;DHT22;5013;51.840;8.276;2023-04-24T11:49:31;9.50;1.00
9949;DHT22;5013;51.840;8.276;2023-04-24T11:51:56;9.30;1.00
9949;DHT22;5013;51.840;8.276;2023-04-24T11:54:22;9.40;1.00
9949;DHT22;5013;51.840;8.276;2023-04-24T11:56:49;9.20;1.00
9949;DHT22;5013;51.840;8.276;2023-04-24T11:59:15;9.10;1.00
9949;DHT22;5013;51.840;8.276;2023-04-24T12:01:47;9.10;1.00
9949;DHT22;5013;51.840;8.276;2023-04-24T12:04:15;9.10;1.00
9949;DHT22;5013;51.840;8.276;2023-04-24T12:06:58;9.00;99.90
9949;DHT22;5013;51.840;8.276;2023-04-24T12:09:24;9.00;1.00
9949;DHT22;5013;51.840;8.276;2023-04-24T12:11:54;9.10;1.00
9949;DHT22;5013;51.840;8.276;2023-04-24T12:14:23;9.10;1.00
9949;DHT22;5013;51.840;8.276;2023-04-24T12:16:50;9.20;54.00
9949;DHT22;5013;51.840;8.276;2023-04-24T12:19:21;9.40;99.90
9949;DHT22;5013;51.840;8.276;2023-04-24T12:22:07;9.50;99.90
9949;DHT22;5013;51.840;8.276;2023-04-24T12:24:33;9.70;1.00
9949;DHT22;5013;51.840;8.276;2023-04-24T12:26:58;9.80;99.90
9949;DHT22;5013;51.840;8.276;2023-04-24T12:29:26;9.80;99.90
9949;DHT22;5013;51.840;8.276;2023-04-24T12:31:52;9.80;99.90
9949;DHT22;5013;51.840;8.276;2023-04-24T12:34:21;9.70;99.90
9949;DHT22;5013;51.840;8.276;2023-04-24T12:36:48;9.70;99.90
9949;DHT22;5013;51.840;8.276;2023-04-24T12:39:18;9.60;99.90
9949;DHT22;5013;51.840;8.276;2023-04-24T12:42:11;9.50;99.90
9949;DHT22;5013;51.840;8.276;2023-04-24T12:44:37;9.60;1.00
9949;DHT22;5013;51.840;8.276;2023-04-24T12:47:02;9.50;19.30
9949;DHT22;5013;51.840;8.276;2023-04-24T12:49:30;9.50;1.00
9949;DHT22;5013;51.840;8.276;2023-04-24T12:51:56;9.60;99.90
9949;DHT22;5013;51.840;8.276;2023-04-24T12:54:22;9.60;1.00
9949;DHT22;5013;51.840;8.276;2023-04-24T12:56:47;9.60;36.90
9949;DHT22;5013;51.840;8.276;2023-04-24T12:59:13;9.50;1.00
9949;DHT22;5013;51.840;8.276;2023-04-24T13:01:39;9.50;1.00
9949;DHT22;5013;51.840;8.276;2023-04-24T13:04:05;9.40;1.00
9949;DHT22;5013;51.840;8.276;2023-04-24T13:06:31;9.50;99.90
9949;DHT22;5013;51.840;8.276;2023-04-24T13:08:57;9.60;99.90
9949;DHT22;5013;51.840;8.276;2023-04-24T13:11:23;9.60;1.00
9949;DHT22;5013;51.840;8.276;2023-04-24T13:13:49;9.70;1.00
9949;DHT22;5013;51.840;8.276;2023-04-24T13:16:15;9.90;1.00
9949;DHT22;5013;51.840;8.276;2023-04-24T13:18:40;9.80;1.00
9949;DHT22;5013;51.840;8.276;2023-04-24T13:21:06;9.90;75.10
9949;DHT22;5013;51.840;8.276;2023-04-24T13:23:32;10.10;1.00
9949;DHT22;5013;51.840;8.276;2023-04-24T13:25:57;10.10;99.90
9949;DHT22;5013;51.840;8.276;2023-04-24T13:28:24;10.10;1.00
9949;DHT22;5013;51.840;8.276;2023-04-24T13:30:50;10.20;99.90
9949;DHT22;5013;51.840;8.276;2023-04-24T13:33:16;10.00;1.00
9949;DHT22;5013;51.840;8.276;2023-04-24T13:35:42;10.00;99.90
9949;DHT22;5013;51.840;8.276;2023-04-24T13:38:07;10.00;99.90
9949;DHT22;5013;51.840;8.276;2023-04-24T13:40:33;10.00;1.00
9949;DHT22;5013;51.840;8.276;2023-04-24T13:42:59;10.10;99.90
9949;DHT22;5013;51.840;8.276;2023-04-24T13:45:26;10.10;1.00
9949;DHT22;5013;51.840;8.276;2023-04-24T13:47:52;10.10;1.00
9949;DHT22;5013;51.840;8.276;2023-04-24T13:50:19;10.20;99.90
9949;DHT22;5013;51.840;8.276;2023-04-24T13:52:45;10.10;99.90
9949;DHT22;5013;51.840;8.276;2023-04-24T13:55:10;10.00;99.90
9949;DHT22;5013;51.840;8.276;2023-04-24T13:57:36;10.00;1.00
9949;DHT22;5013;51.840;8.276;2023-04-24T14:00:02;10.10;1.00
9949;DHT22;5013;51.840;8.276;2023-04-24T14:02:29;10.00;1.00
9949;DHT22;5013;51.840;8.276;2023-04-24T14:04:55;10.10;99.90
9949;DHT22;5013;51.840;8.276;2023-04-24T14:07:20;10.00;99.90
9949;DHT22;5013;51.840;8.276;2023-04-24T14:09:46;9.90;1.00
9949;DHT22;5013;51.840;8.276;2023-04-24T14:12:12;9.80;1.00
9949;DHT22;5013;51.840;8.276;2023-04-24T14:14:38;9.80;65.70
9949;DHT22;5013;51.840;8.276;2023-04-24T14:17:03;9.80;1.00
9949;DHT22;5013;51.840;8.276;2023-04-24T14:19:29;9.90;1.00
9949;DHT22;5013;51.840;8.276;2023-04-24T14:21:54;10.00;1.00
9949;DHT22;5013;51.840;8.276;2023-04-24T14:24:22;10.10;99.90
9949;DHT22;5013;51.840;8.276;2023-04-24T14:26:47;10.10;1.00
9949;DHT22;5013;51.840;8.276;2023-04-24T14:29:13;10.20;99.90
9949;DHT22;5013;51.840;8.276;2023-04-24T14:31:38;10.20;99.90
9949;DHT22;5013;51.840;8.276;2023-04-24T14:34:04;10.20;99.90
9949;DHT22;5013;51.840;8.276;2023-04-24T14:36:29;10.10;1.00
9949;DHT22;5013;51.840;8.276;2023-04-24T14:38:56;10.10;1.00
9949;DHT22;5013;51.840;8.276;2023-04-24T14:41:22;10.00;1.00
9949;DHT22;5013;51.840;8.276;2023-04-24T14:43:47;10.00;99.90
9949;DHT22;5013;51.840;8.276;2023-04-24T14:46:13;9.90;1.00
9949;DHT22;5013;51.840;8.276;2023-04-24T14:48:39;9.90;99.90
9949;DHT22;5013;51.840;8.276;2023-04-24T14:51:04;9.90;33.50
9949;DHT22;5013;51.840;8.276;2023-04-24T14:53:30;9.90;1.00
9949;DHT22;5013;51.840;8.276;2023-04-24T14:55:56;9.90;1.00
9949;DHT22;5013;51.840;8.276;2023-04-24T14:58:21;9.90;99.90
9949;DHT22;5013;51.840;8.276;2023-04-24T15:00:47;10.00;1.00
9949;DHT22;5013;51.840;8.276;2023-04-24T15:03:15;10.00;1.00
9949;DHT22;5013;51.840;8.276;2023-04-24T15:05:41;9.90;1.00
9949;DHT22;5013;51.840;8.276;2023-04-24T15:08:06;9.90;1.00
9949;DHT22;5013;51.840;8.276;2023-04-24T15:10:32;10.00;99.90
9949;DHT22;5013;51.840;8.276;2023-04-24T15:12:58;10.20;1.00
9949;DHT22;5013;51.840;8.276;2023-04-24T15:15:24;10.30;1.00
9949;DHT22;5013;51.840;8.276;2023-04-24T15:17:49;10.40;55.60
9949;DHT22;5013;51.840;8.276;2023-04-24T15:20:15;10.40;1.00
9949;DHT22;5013;51.840;8.276;2023-04-24T15:22:41;10.50;1.00
9949;DHT22;5013;51.840;8.276;2023-04-24T15:25:07;10.50;99.90
9949;DHT22;5013;51.840;8.276;2023-04-24T15:27:43;10.40;99.90
9949;DHT22;5013;51.840;8.276;2023-04-24T15:30:09;10.50;1.00
9949;DHT22;5013;51.840;8.276;2023-04-24T15:32:36;10.50;99.90
9949;DHT22;5013;51.840;8.276;2023-04-24T15:35:01;10.40;99.90
9949;DHT22;5013;51.840;8.276;2023-04-24T15:37:27;10.40;99.90
9949;DHT22;5013;51.840;8.276;2023-04-24T15:39:53;10.30;99.90
9949;DHT22;5013;51.840;8.276;2023-04-24T15:42:18;10.20;1.00
9949;DHT22;5013;51.840;8.276;2023-04-24T15:44:44;10.30;1.00
9949;DHT22;5013;51.840;8.276;2023-04-24T15:47:09;10.20;78.90
9949;DHT22;5013;51.840;8.276;2023-04-24T15:49:35;10.30;43.80
9949;DHT22;5013;51.840;8.276;2023-04-24T15:52:01;10.20;99.90
9949;DHT22;5013;51.840;8.276;2023-04-24T15:54:26;10.20;99.90
9949;DHT22;5013;51.840;8.276;2023-04-24T15:56:52;10.30;99.90
9949;DHT22;5013;51.840;8.276;2023-04-24T15:59:18;10.40;1.00
9949;DHT22;5013;51.840;8.276;2023-04-24T16:01:43;10.30;99.90
9949;DHT22;5013;51.840;8.276;2023-04-24T16:04:09;10.10;43.90
9949;DHT22;5013;51.840;8.276;2023-04-24T16:06:34;10.10;1.00
9949;DHT22;5013;51.840;8.276;2023-04-24T16:09:00;10.20;99.90
9949;DHT22;5013;51.840;8.276;2023-04-24T16:11:25;10.20;52.50
9949;DHT22;5013;51.840;8.276;2023-04-24T16:13:51;10.30;99.90
9949;DHT22;5013;51.840;8.276;2023-04-24T16:16:17;10.50;1.00
9949;DHT22;5013;51.840;8.276;2023-04-24T16:18:42;10.60;40.90